Las Cruces, NM

8:18 AM MDT on July 28, 2015 (GMT -0600)
KNMLASCR21 | | Change Station
CLOSE
Current Station
Personal Weather Station
Location: Tech-4-Seniors, NM
Elevation: 4209 ft
Nearby Weather Stations

Elev 4209 ft 32.34 °N, 106.73 °W | Updated 1 minute ago

Partly Cloudy
Partly Cloudy
77.7 °F
Feels Like 79 °F
N
0.0
Wind Variable Wind from South
Gusts 28.4 mph

Today
High -- | Low -- °F
--% Chance of Precip.
Yesterday
High -- | Low -- °F
Precip. -- in
6:18 AM 8:07 PM
Waxing Gibbous, 89% visible
Pressure 30.12 in
Visibility 10.0 miles
Clouds Clear
Heat Index 79 °F
Dew Point 60 °F
Humidity 54%
Rainfall 0.00 in
Snow Depth Not available.
UV 1 out of 12
Pollen 4.30 out of 12
Air Quality Not available.
Flu Activity Not available.
METAR KLRU 281355Z AUTO 00000KT 10SM CLR 24/16 A3012 RMK AO2 T02370160

More Conditions Fewer Conditions

Pressure 30.12 in
Visibility 10.0 miles
Clouds Clear
Heat Index 79 °F
Dew Point 60 °F
Humidity 54%
Rainfall 0.00 in
Snow Depth Not available.
UV 1 out of 12
Pollen 4.30 out of 12
Air Quality Not available.
Flu Activity Not available.
METAR KLRU 281355Z AUTO 00000KT 10SM CLR 24/16 A3012 RMK AO2 T02370160

More Conditions Fewer Conditions

10-Day Weather Forecast

×

Almanac

Astronomy

Jul. 28, 2015 Rise Set
Actual Time
Civil Twilight
Nautical Twilight
Astronomical Twilight
Moon
Length of Visible Light
Length of Day
Tomorrow will be .
, % of the Moon is Illuminated

Today's Extremes

State Highs State Lows

Community

WunderPhotos

Upload Photos

1,841,836 photos uploaded!

WunderBlogs® & News

Nearby

Air Quality

  Air Quality AQ Index Pollutant
Not available.

Snow Depth

Station Depth Elevation

Earthquake Activity

City Distance Mag. Time & Date
Minimum magnitude displayed is 2.5.

Coastal Water Temperatures

Place Temperature

Stations

Nearby Weather Stations

Station Location Temp. Windchill Dew Point Humidity Wind Precip. Elev Updated Type